sensor_id;sensor_type;location;lat;lon;timestamp;P1;durP1;ratioP1;P2;durP2;ratioP2
11064;SDS011;5585;52.530;7.320;2023-02-18T00:01:00;5.73;;;1.90;;
11064;SDS011;5585;52.530;7.320;2023-02-18T00:03:27;5.50;;;1.87;;
11064;SDS011;5585;52.530;7.320;2023-02-18T00:05:53;5.13;;;1.63;;
11064;SDS011;5585;52.530;7.320;2023-02-18T00:08:20;3.67;;;1.50;;
11064;SDS011;5585;52.530;7.320;2023-02-18T00:10:47;5.97;;;1.80;;
11064;SDS011;5585;52.530;7.320;2023-02-18T00:13:15;7.90;;;2.30;;
11064;SDS011;5585;52.530;7.320;2023-02-18T00:15:42;8.40;;;2.37;;
11064;SDS011;5585;52.530;7.320;2023-02-18T00:18:08;8.80;;;2.60;;
11064;SDS011;5585;52.530;7.320;2023-02-18T00:20:37;5.20;;;1.90;;
11064;SDS011;5585;52.530;7.320;2023-02-18T00:23:03;6.17;;;1.90;;
11064;SDS011;5585;52.530;7.320;2023-02-18T00:25:30;5.40;;;1.90;;
11064;SDS011;5585;52.530;7.320;2023-02-18T00:27:56;9.03;;;2.20;;
11064;SDS011;5585;52.530;7.320;2023-02-18T00:30:26;7.10;;;2.33;;
11064;SDS011;5585;52.530;7.320;2023-02-18T00:32:53;7.07;;;2.20;;
11064;SDS011;5585;52.530;7.320;2023-02-18T00:35:20;7.80;;;2.63;;
11064;SDS011;5585;52.530;7.320;2023-02-18T00:37:46;5.43;;;2.40;;
11064;SDS011;5585;52.530;7.320;2023-02-18T00:40:16;8.80;;;2.80;;
11064;SDS011;5585;52.530;7.320;2023-02-18T00:42:42;8.70;;;2.53;;
11064;SDS011;5585;52.530;7.320;2023-02-18T00:45:09;7.30;;;2.60;;
11064;SDS011;5585;52.530;7.320;2023-02-18T00:47:36;10.03;;;2.57;;
11064;SDS011;5585;52.530;7.320;2023-02-18T00:50:03;8.20;;;2.73;;
11064;SDS011;5585;52.530;7.320;2023-02-18T00:52:30;8.90;;;2.63;;
11064;SDS011;5585;52.530;7.320;2023-02-18T00:54:56;9.47;;;2.37;;
11064;SDS011;5585;52.530;7.320;2023-02-18T00:57:23;6.50;;;2.27;;
11064;SDS011;5585;52.530;7.320;2023-02-18T00:59:50;8.40;;;2.63;;
11064;SDS011;5585;52.530;7.320;2023-02-18T01:02:16;6.77;;;2.47;;
11064;SDS011;5585;52.530;7.320;2023-02-18T01:04:44;5.80;;;2.33;;
11064;SDS011;5585;52.530;7.320;2023-02-18T01:07:11;7.10;;;2.60;;
11064;SDS011;5585;52.530;7.320;2023-02-18T01:09:37;7.50;;;2.57;;
11064;SDS011;5585;52.530;7.320;2023-02-18T01:12:04;8.53;;;2.70;;
11064;SDS011;5585;52.530;7.320;2023-02-18T01:14:30;5.43;;;2.30;;
11064;SDS011;5585;52.530;7.320;2023-02-18T01:16:57;6.93;;;2.80;;
11064;SDS011;5585;52.530;7.320;2023-02-18T01:19:23;9.10;;;3.13;;
11064;SDS011;5585;52.530;7.320;2023-02-18T01:21:51;7.13;;;2.40;;
11064;SDS011;5585;52.530;7.320;2023-02-18T01:24:18;7.00;;;2.60;;
11064;SDS011;5585;52.530;7.320;2023-02-18T01:26:44;10.60;;;3.27;;
11064;SDS011;5585;52.530;7.320;2023-02-18T01:29:11;9.13;;;3.43;;
11064;SDS011;5585;52.530;7.320;2023-02-18T01:31:37;8.57;;;3.47;;
11064;SDS011;5585;52.530;7.320;2023-02-18T01:34:04;7.03;;;3.10;;
11064;SDS011;5585;52.530;7.320;2023-02-18T01:36:30;11.83;;;4.40;;
11064;SDS011;5585;52.530;7.320;2023-02-18T01:38:58;8.13;;;3.87;;
11064;SDS011;5585;52.530;7.320;2023-02-18T01:41:25;7.90;;;3.27;;
11064;SDS011;5585;52.530;7.320;2023-02-18T01:46:33;10.83;;;4.37;;
11064;SDS011;5585;52.530;7.320;2023-02-18T01:48:59;10.17;;;4.57;;
11064;SDS011;5585;52.530;7.320;2023-02-18T01:51:27;13.73;;;7.30;;
11064;SDS011;5585;52.530;7.320;2023-02-18T01:53:55;16.77;;;7.43;;
11064;SDS011;5585;52.530;7.320;2023-02-18T01:56:25;15.43;;;8.10;;
11064;SDS011;5585;52.530;7.320;2023-02-18T01:58:53;12.03;;;8.30;;
11064;SDS011;5585;52.530;7.320;2023-02-18T02:01:20;13.17;;;8.63;;
11064;SDS011;5585;52.530;7.320;2023-02-18T02:03:46;15.57;;;9.23;;
11064;SDS011;5585;52.530;7.320;2023-02-18T02:06:15;17.17;;;10.67;;
11064;SDS011;5585;52.530;7.320;2023-02-18T02:08:43;16.50;;;11.97;;
11064;SDS011;5585;52.530;7.320;2023-02-18T02:11:15;16.40;;;12.27;;
11064;SDS011;5585;52.530;7.320;2023-02-18T02:13:56;20.73;;;13.80;;
11064;SDS011;5585;52.530;7.320;2023-02-18T02:16:25;22.93;;;15.07;;
11064;SDS011;5585;52.530;7.320;2023-02-18T02:18:56;20.47;;;15.87;;
11064;SDS011;5585;52.530;7.320;2023-02-18T02:21:39;22.90;;;15.77;;
11064;SDS011;5585;52.530;7.320;2023-02-18T02:24:28;23.57;;;17.40;;
11064;SDS011;5585;52.530;7.320;2023-02-18T02:27:11;25.80;;;19.80;;
11064;SDS011;5585;52.530;7.320;2023-02-18T02:29:49;29.67;;;19.93;;
11064;SDS011;5585;52.530;7.320;2023-02-18T02:32:26;24.53;;;20.87;;
11064;SDS011;5585;52.530;7.320;2023-02-18T02:34:58;29.00;;;20.67;;
11064;SDS011;5585;52.530;7.320;2023-02-18T02:37:28;29.63;;;20.23;;
11064;SDS011;5585;52.530;7.320;2023-02-18T02:40:02;28.03;;;20.57;;
11064;SDS011;5585;52.530;7.320;2023-02-18T02:42:35;29.87;;;21.47;;
11064;SDS011;5585;52.530;7.320;2023-02-18T02:45:03;28.63;;;21.37;;
11064;SDS011;5585;52.530;7.320;2023-02-18T02:47:34;26.53;;;20.63;;
11064;SDS011;5585;52.530;7.320;2023-02-18T02:50:05;27.73;;;21.07;;
11064;SDS011;5585;52.530;7.320;2023-02-18T02:52:33;31.13;;;21.47;;
11064;SDS011;5585;52.530;7.320;2023-02-18T02:55:03;29.73;;;21.97;;
11064;SDS011;5585;52.530;7.320;2023-02-18T02:57:47;27.23;;;21.37;;
11064;SDS011;5585;52.530;7.320;2023-02-18T03:00:15;26.80;;;21.10;;
11064;SDS011;5585;52.530;7.320;2023-02-18T03:02:46;26.60;;;20.97;;
11064;SDS011;5585;52.530;7.320;2023-02-18T03:05:22;27.00;;;20.73;;
11064;SDS011;5585;52.530;7.320;2023-02-18T03:08:03;27.67;;;21.90;;
11064;SDS011;5585;52.530;7.320;2023-02-18T03:10:40;26.03;;;21.20;;
11064;SDS011;5585;52.530;7.320;2023-02-18T03:13:09;32.23;;;22.17;;
11064;SDS011;5585;52.530;7.320;2023-02-18T03:15:42;29.93;;;22.10;;
11064;SDS011;5585;52.530;7.320;2023-02-18T03:18:13;30.87;;;20.67;;
11064;SDS011;5585;52.530;7.320;2023-02-18T03:20:45;30.17;;;21.43;;
11064;SDS011;5585;52.530;7.320;2023-02-18T03:23:14;30.13;;;21.40;;
11064;SDS011;5585;52.530;7.320;2023-02-18T03:25:42;31.67;;;20.90;;
11064;SDS011;5585;52.530;7.320;2023-02-18T03:28:10;29.37;;;20.60;;
11064;SDS011;5585;52.530;7.320;2023-02-18T03:30:39;27.17;;;20.93;;
11064;SDS011;5585;52.530;7.320;2023-02-18T03:33:07;30.83;;;21.93;;
11064;SDS011;5585;52.530;7.320;2023-02-18T03:35:35;31.03;;;21.63;;
11064;SDS011;5585;52.530;7.320;2023-02-18T03:38:08;31.33;;;21.60;;
11064;SDS011;5585;52.530;7.320;2023-02-18T03:40:38;33.43;;;22.37;;
11064;SDS011;5585;52.530;7.320;2023-02-18T03:43:05;30.30;;;21.67;;
11064;SDS011;5585;52.530;7.320;2023-02-18T03:45:32;29.10;;;20.33;;
11064;SDS011;5585;52.530;7.320;2023-02-18T03:47:58;29.60;;;20.87;;
11064;SDS011;5585;52.530;7.320;2023-02-18T03:50:25;30.20;;;22.13;;
11064;SDS011;5585;52.530;7.320;2023-02-18T03:52:51;29.83;;;22.10;;
11064;SDS011;5585;52.530;7.320;2023-02-18T03:55:19;32.27;;;21.73;;
11064;SDS011;5585;52.530;7.320;2023-02-18T03:57:46;31.20;;;20.77;;
11064;SDS011;5585;52.530;7.320;2023-02-18T04:00:12;33.90;;;22.03;;
11064;SDS011;5585;52.530;7.320;2023-02-18T04:02:39;33.37;;;21.63;;
11064;SDS011;5585;52.530;7.320;2023-02-18T04:05:06;29.40;;;20.37;;
11064;SDS011;5585;52.530;7.320;2023-02-18T04:07:33;29.60;;;21.30;;
11064;SDS011;5585;52.530;7.320;2023-02-18T04:10:00;35.80;;;20.63;;
11064;SDS011;5585;52.530;7.320;2023-02-18T04:12:28;30.27;;;20.37;;
11064;SDS011;5585;52.530;7.320;2023-02-18T04:14:54;31.23;;;20.23;;
11064;SDS011;5585;52.530;7.320;2023-02-18T04:17:21;29.00;;;19.80;;
11064;SDS011;5585;52.530;7.320;2023-02-18T04:19:48;31.83;;;19.60;;
11064;SDS011;5585;52.530;7.320;2023-02-18T04:22:14;28.83;;;18.63;;
11064;SDS011;5585;52.530;7.320;2023-02-18T04:24:41;30.10;;;18.87;;
11064;SDS011;5585;52.530;7.320;2023-02-18T04:27:07;27.83;;;18.00;;
11064;SDS011;5585;52.530;7.320;2023-02-18T04:29:36;27.73;;;18.70;;
11064;SDS011;5585;52.530;7.320;2023-02-18T04:32:03;27.97;;;18.07;;
11064;SDS011;5585;52.530;7.320;2023-02-18T04:34:29;27.03;;;17.80;;
11064;SDS011;5585;52.530;7.320;2023-02-18T04:36:56;30.03;;;19.13;;
11064;SDS011;5585;52.530;7.320;2023-02-18T04:39:22;27.37;;;17.83;;
11064;SDS011;5585;52.530;7.320;2023-02-18T04:41:49;36.03;;;19.40;;
11064;SDS011;5585;52.530;7.320;2023-02-18T04:44:15;25.77;;;17.90;;
11064;SDS011;5585;52.530;7.320;2023-02-18T04:46:43;31.77;;;18.07;;
11064;SDS011;5585;52.530;7.320;2023-02-18T04:49:10;31.27;;;18.00;;
11064;SDS011;5585;52.530;7.320;2023-02-18T04:51:36;29.90;;;18.33;;
11064;SDS011;5585;52.530;7.320;2023-02-18T04:54:03;28.33;;;18.27;;
11064;SDS011;5585;52.530;7.320;2023-02-18T04:56:30;31.27;;;19.30;;
11064;SDS011;5585;52.530;7.320;2023-02-18T04:58:56;29.53;;;18.73;;
11064;SDS011;5585;52.530;7.320;2023-02-18T05:01:23;28.33;;;16.50;;
11064;SDS011;5585;52.530;7.320;2023-02-18T05:03:50;27.93;;;17.90;;
11064;SDS011;5585;52.530;7.320;2023-02-18T05:06:17;25.93;;;17.00;;
11064;SDS011;5585;52.530;7.320;2023-02-18T05:08:43;25.67;;;16.63;;
11064;SDS011;5585;52.530;7.320;2023-02-18T05:11:10;27.57;;;16.77;;
11064;SDS011;5585;52.530;7.320;2023-02-18T05:13:36;28.40;;;16.87;;
11064;SDS011;5585;52.530;7.320;2023-02-18T05:16:03;26.73;;;16.70;;
11064;SDS011;5585;52.530;7.320;2023-02-18T05:18:30;24.97;;;15.87;;
11064;SDS011;5585;52.530;7.320;2023-02-18T05:20:58;26.57;;;16.13;;
11064;SDS011;5585;52.530;7.320;2023-02-18T05:23:24;24.37;;;15.63;;
11064;SDS011;5585;52.530;7.320;2023-02-18T05:25:51;25.43;;;16.40;;
11064;SDS011;5585;52.530;7.320;2023-02-18T05:28:18;29.97;;;17.57;;
11064;SDS011;5585;52.530;7.320;2023-02-18T05:30:45;24.83;;;16.57;;
11064;SDS011;5585;52.530;7.320;2023-02-18T05:33:11;26.27;;;16.57;;
11064;SDS011;5585;52.530;7.320;2023-02-18T05:35:38;23.73;;;14.57;;
11064;SDS011;5585;52.530;7.320;2023-02-18T05:38:06;20.67;;;13.53;;
11064;SDS011;5585;52.530;7.320;2023-02-18T05:40:34;25.13;;;14.50;;
11064;SDS011;5585;52.530;7.320;2023-02-18T05:43:00;23.70;;;15.00;;
11064;SDS011;5585;52.530;7.320;2023-02-18T05:45:27;19.67;;;13.50;;
11064;SDS011;5585;52.530;7.320;2023-02-18T05:47:53;18.23;;;12.63;;
11064;SDS011;5585;52.530;7.320;2023-02-18T05:50:20;21.40;;;12.87;;
11064;SDS011;5585;52.530;7.320;2023-02-18T05:52:46;18.13;;;11.83;;
11064;SDS011;5585;52.530;7.320;2023-02-18T05:55:14;17.80;;;10.97;;
11064;SDS011;5585;52.530;7.320;2023-02-18T05:57:41;19.17;;;11.77;;
11064;SDS011;5585;52.530;7.320;2023-02-18T06:00:07;17.43;;;11.47;;
11064;SDS011;5585;52.530;7.320;2023-02-18T06:02:34;15.07;;;10.47;;
11064;SDS011;5585;52.530;7.320;2023-02-18T06:05:01;15.03;;;10.20;;
11064;SDS011;5585;52.530;7.320;2023-02-18T06:07:27;13.90;;;9.37;;
11064;SDS011;5585;52.530;7.320;2023-02-18T06:09:54;14.47;;;9.73;;
11064;SDS011;5585;52.530;7.320;2023-02-18T06:12:22;14.53;;;9.70;;
11064;SDS011;5585;52.530;7.320;2023-02-18T06:14:48;12.37;;;8.57;;
11064;SDS011;5585;52.530;7.320;2023-02-18T06:17:15;12.33;;;8.50;;
11064;SDS011;5585;52.530;7.320;2023-02-18T06:19:42;11.33;;;8.17;;
11064;SDS011;5585;52.530;7.320;2023-02-18T06:22:09;11.30;;;7.80;;
11064;SDS011;5585;52.530;7.320;2023-02-18T06:24:36;11.57;;;7.60;;
11064;SDS011;5585;52.530;7.320;2023-02-18T06:27:02;10.63;;;7.33;;
11064;SDS011;5585;52.530;7.320;2023-02-18T06:29:30;11.00;;;6.67;;
11064;SDS011;5585;52.530;7.320;2023-02-18T06:31:57;8.40;;;5.97;;
11064;SDS011;5585;52.530;7.320;2023-02-18T06:34:24;8.90;;;6.57;;
11064;SDS011;5585;52.530;7.320;2023-02-18T06:36:50;7.67;;;5.23;;
11064;SDS011;5585;52.530;7.320;2023-02-18T06:39:17;6.63;;;4.70;;
11064;SDS011;5585;52.530;7.320;2023-02-18T06:41:44;7.57;;;5.40;;
11064;SDS011;5585;52.530;7.320;2023-02-18T06:44:10;7.83;;;5.27;;
11064;SDS011;5585;52.530;7.320;2023-02-18T06:46:40;7.37;;;5.53;;
11064;SDS011;5585;52.530;7.320;2023-02-18T06:49:07;6.47;;;4.40;;
11064;SDS011;5585;52.530;7.320;2023-02-18T06:51:34;6.53;;;4.67;;
11064;SDS011;5585;52.530;7.320;2023-02-18T06:54:00;6.17;;;4.13;;
11064;SDS011;5585;52.530;7.320;2023-02-18T06:56:27;4.97;;;3.73;;
11064;SDS011;5585;52.530;7.320;2023-02-18T06:58:54;5.77;;;3.87;;
11064;SDS011;5585;52.530;7.320;2023-02-18T07:01:21;5.07;;;3.83;;
11064;SDS011;5585;52.530;7.320;2023-02-18T07:03:49;6.37;;;4.10;;
11064;SDS011;5585;52.530;7.320;2023-02-18T07:06:19;7.60;;;5.43;;
11064;SDS011;5585;52.530;7.320;2023-02-18T07:08:48;4.53;;;3.50;;
11064;SDS011;5585;52.530;7.320;2023-02-18T07:11:17;3.57;;;2.90;;
11064;SDS011;5585;52.530;7.320;2023-02-18T07:13:44;2.90;;;2.47;;
11064;SDS011;5585;52.530;7.320;2023-02-18T07:16:11;3.73;;;3.07;;
11064;SDS011;5585;52.530;7.320;2023-02-18T07:18:37;3.33;;;2.87;;
11064;SDS011;5585;52.530;7.320;2023-02-18T07:21:05;3.87;;;3.00;;
11064;SDS011;5585;52.530;7.320;2023-02-18T07:23:32;3.17;;;2.77;;
11064;SDS011;5585;52.530;7.320;2023-02-18T07:26:02;3.10;;;2.80;;
11064;SDS011;5585;52.530;7.320;2023-02-18T07:28:29;3.30;;;2.60;;
11064;SDS011;5585;52.530;7.320;2023-02-18T07:30:55;3.17;;;2.50;;
11064;SDS011;5585;52.530;7.320;2023-02-18T07:33:22;3.03;;;2.63;;
11064;SDS011;5585;52.530;7.320;2023-02-18T07:35:51;2.93;;;2.53;;
11064;SDS011;5585;52.530;7.320;2023-02-18T07:38:19;3.20;;;2.87;;
11064;SDS011;5585;52.530;7.320;2023-02-18T07:40:46;3.10;;;2.80;;
11064;SDS011;5585;52.530;7.320;2023-02-18T07:43:12;3.37;;;3.07;;
11064;SDS011;5585;52.530;7.320;2023-02-18T07:45:39;4.00;;;3.60;;
11064;SDS011;5585;52.530;7.320;2023-02-18T07:48:06;3.50;;;2.77;;
11064;SDS011;5585;52.530;7.320;2023-02-18T07:50:32;3.63;;;2.83;;
11064;SDS011;5585;52.530;7.320;2023-02-18T07:53:02;3.50;;;3.00;;
11064;SDS011;5585;52.530;7.320;2023-02-18T07:55:30;4.27;;;3.47;;
11064;SDS011;5585;52.530;7.320;2023-02-18T07:58:10;3.47;;;3.17;;
11064;SDS011;5585;52.530;7.320;2023-02-18T08:00:37;2.70;;;2.50;;
11064;SDS011;5585;52.530;7.320;2023-02-18T08:03:03;2.93;;;2.63;;
11064;SDS011;5585;52.530;7.320;2023-02-18T08:05:30;2.80;;;2.47;;
11064;SDS011;5585;52.530;7.320;2023-02-18T08:07:57;2.70;;;2.50;;
11064;SDS011;5585;52.530;7.320;2023-02-18T08:10:23;2.50;;;2.30;;
11064;SDS011;5585;52.530;7.320;2023-02-18T08:12:51;3.17;;;2.80;;
11064;SDS011;5585;52.530;7.320;2023-02-18T08:15:18;3.97;;;2.77;;
11064;SDS011;5585;52.530;7.320;2023-02-18T08:17:44;3.73;;;3.00;;
11064;SDS011;5585;52.530;7.320;2023-02-18T08:20:11;3.57;;;3.20;;
11064;SDS011;5585;52.530;7.320;2023-02-18T08:22:37;6.87;;;4.00;;
11064;SDS011;5585;52.530;7.320;2023-02-18T08:25:04;4.20;;;3.80;;
11064;SDS011;5585;52.530;7.320;2023-02-18T08:27:31;5.30;;;4.10;;
11064;SDS011;5585;52.530;7.320;2023-02-18T08:29:59;4.50;;;4.10;;
11064;SDS011;5585;52.530;7.320;2023-02-18T08:32:25;5.73;;;5.13;;
11064;SDS011;5585;52.530;7.320;2023-02-18T08:34:52;6.80;;;5.17;;
11064;SDS011;5585;52.530;7.320;2023-02-18T08:37:18;6.73;;;5.80;;
11064;SDS011;5585;52.530;7.320;2023-02-18T08:39:45;8.17;;;6.47;;
11064;SDS011;5585;52.530;7.320;2023-02-18T08:42:11;6.80;;;6.10;;
11064;SDS011;5585;52.530;7.320;2023-02-18T08:44:38;7.67;;;6.27;;
11064;SDS011;5585;52.530;7.320;2023-02-18T08:47:06;6.53;;;5.83;;
11064;SDS011;5585;52.530;7.320;2023-02-18T08:49:32;7.93;;;6.30;;
11064;SDS011;5585;52.530;7.320;2023-02-18T08:52:01;8.20;;;7.27;;
11064;SDS011;5585;52.530;7.320;2023-02-18T08:54:27;8.13;;;7.33;;
11064;SDS011;5585;52.530;7.320;2023-02-18T08:56:54;8.40;;;7.60;;
11064;SDS011;5585;52.530;7.320;2023-02-18T08:59:21;9.17;;;7.70;;
11064;SDS011;5585;52.530;7.320;2023-02-18T09:01:48;9.03;;;8.03;;
11064;SDS011;5585;52.530;7.320;2023-02-18T09:04:16;10.20;;;8.50;;
11064;SDS011;5585;52.530;7.320;2023-02-18T09:06:45;9.20;;;8.30;;
11064;SDS011;5585;52.530;7.320;2023-02-18T09:09:12;11.30;;;8.40;;
11064;SDS011;5585;52.530;7.320;2023-02-18T09:11:38;10.00;;;7.60;;
11064;SDS011;5585;52.530;7.320;2023-02-18T09:14:05;8.40;;;7.50;;
11064;SDS011;5585;52.530;7.320;2023-02-18T09:16:31;7.67;;;6.70;;
11064;SDS011;5585;52.530;7.320;2023-02-18T09:18:58;7.90;;;6.73;;
11064;SDS011;5585;52.530;7.320;2023-02-18T09:21:26;7.57;;;6.80;;
11064;SDS011;5585;52.530;7.320;2023-02-18T09:23:52;8.23;;;6.63;;
11064;SDS011;5585;52.530;7.320;2023-02-18T09:26:19;6.90;;;5.97;;
11064;SDS011;5585;52.530;7.320;2023-02-18T09:28:47;6.37;;;5.27;;
11064;SDS011;5585;52.530;7.320;2023-02-18T09:31:14;5.77;;;4.63;;
11064;SDS011;5585;52.530;7.320;2023-02-18T09:33:42;6.27;;;5.00;;
11064;SDS011;5585;52.530;7.320;2023-02-18T09:36:09;7.43;;;5.27;;
11064;SDS011;5585;52.530;7.320;2023-02-18T09:38:37;6.10;;;5.10;;
11064;SDS011;5585;52.530;7.320;2023-02-18T09:41:04;6.57;;;5.20;;
11064;SDS011;5585;52.530;7.320;2023-02-18T09:43:32;6.53;;;5.07;;
11064;SDS011;5585;52.530;7.320;2023-02-18T09:46:00;6.50;;;5.50;;
11064;SDS011;5585;52.530;7.320;2023-02-18T09:48:27;7.07;;;4.93;;
11064;SDS011;5585;52.530;7.320;2023-02-18T09:50:55;6.63;;;4.97;;
11064;SDS011;5585;52.530;7.320;2023-02-18T09:53:22;5.53;;;4.50;;
11064;SDS011;5585;52.530;7.320;2023-02-18T09:55:50;6.70;;;5.67;;
11064;SDS011;5585;52.530;7.320;2023-02-18T09:58:18;7.70;;;5.03;;
11064;SDS011;5585;52.530;7.320;2023-02-18T10:00:46;6.10;;;4.53;;
11064;SDS011;5585;52.530;7.320;2023-02-18T10:03:15;6.10;;;5.07;;
11064;SDS011;5585;52.530;7.320;2023-02-18T10:05:45;6.63;;;4.77;;
11064;SDS011;5585;52.530;7.320;2023-02-18T10:08:17;6.17;;;5.17;;
11064;SDS011;5585;52.530;7.320;2023-02-18T10:10:45;7.03;;;4.63;;
11064;SDS011;5585;52.530;7.320;2023-02-18T10:13:14;5.90;;;3.80;;
11064;SDS011;5585;52.530;7.320;2023-02-18T10:15:41;4.37;;;3.00;;
11064;SDS011;5585;52.530;7.320;2023-02-18T10:18:13;5.27;;;3.10;;
11064;SDS011;5585;52.530;7.320;2023-02-18T10:20:42;4.03;;;3.00;;
11064;SDS011;5585;52.530;7.320;2023-02-18T10:23:08;3.73;;;2.60;;
11064;SDS011;5585;52.530;7.320;2023-02-18T10:25:37;3.43;;;2.67;;
11064;SDS011;5585;52.530;7.320;2023-02-18T10:28:07;3.93;;;2.60;;
11064;SDS011;5585;52.530;7.320;2023-02-18T10:30:37;2.97;;;2.17;;
11064;SDS011;5585;52.530;7.320;2023-02-18T10:33:09;2.97;;;2.27;;
11064;SDS011;5585;52.530;7.320;2023-02-18T10:35:43;3.90;;;2.40;;
11064;SDS011;5585;52.530;7.320;2023-02-18T10:38:12;4.10;;;2.30;;
11064;SDS011;5585;52.530;7.320;2023-02-18T10:40:44;3.77;;;2.27;;
11064;SDS011;5585;52.530;7.320;2023-02-18T10:43:15;4.27;;;2.30;;
11064;SDS011;5585;52.530;7.320;2023-02-18T10:45:47;3.77;;;2.20;;
11064;SDS011;5585;52.530;7.320;2023-02-18T10:48:20;4.20;;;2.10;;
11064;SDS011;5585;52.530;7.320;2023-02-18T10:50:50;6.13;;;2.17;;
11064;SDS011;5585;52.530;7.320;2023-02-18T10:53:17;4.53;;;2.03;;
11064;SDS011;5585;52.530;7.320;2023-02-18T10:55:48;4.27;;;2.40;;
11064;SDS011;5585;52.530;7.320;2023-02-18T10:58:29;3.43;;;2.30;;
11064;SDS011;5585;52.530;7.320;2023-02-18T11:00:57;5.30;;;2.20;;
11064;SDS011;5585;52.530;7.320;2023-02-18T11:03:24;5.20;;;2.30;;
11064;SDS011;5585;52.530;7.320;2023-02-18T11:05:52;5.90;;;2.20;;
11064;SDS011;5585;52.530;7.320;2023-02-18T11:08:20;4.70;;;2.63;;
11064;SDS011;5585;52.530;7.320;2023-02-18T11:10:48;5.80;;;2.40;;
11064;SDS011;5585;52.530;7.320;2023-02-18T11:13:15;5.83;;;2.70;;
11064;SDS011;5585;52.530;7.320;2023-02-18T11:15:52;4.67;;;2.40;;
11064;SDS011;5585;52.530;7.320;2023-02-18T11:18:26;5.30;;;2.43;;
11064;SDS011;5585;52.530;7.320;2023-02-18T11:20:54;7.37;;;2.80;;
11064;SDS011;5585;52.530;7.320;2023-02-18T11:23:21;4.87;;;2.20;;
11064;SDS011;5585;52.530;7.320;2023-02-18T11:25:53;3.93;;;2.33;;
11064;SDS011;5585;52.530;7.320;2023-02-18T11:31:04;6.97;;;2.77;;
11064;SDS011;5585;52.530;7.320;2023-02-18T11:33:33;4.37;;;2.27;;
11064;SDS011;5585;52.530;7.320;2023-02-18T11:36:03;6.00;;;2.73;;
11064;SDS011;5585;52.530;7.320;2023-02-18T11:38:33;7.20;;;2.60;;
11064;SDS011;5585;52.530;7.320;2023-02-18T11:41:00;7.87;;;2.97;;
11064;SDS011;5585;52.530;7.320;2023-02-18T11:43:29;7.67;;;2.67;;
11064;SDS011;5585;52.530;7.320;2023-02-18T11:46:06;7.33;;;2.50;;
11064;SDS011;5585;52.530;7.320;2023-02-18T11:48:34;7.60;;;2.80;;
11064;SDS011;5585;52.530;7.320;2023-02-18T11:51:02;6.53;;;3.10;;
11064;SDS011;5585;52.530;7.320;2023-02-18T11:53:29;8.70;;;3.13;;
11064;SDS011;5585;52.530;7.320;2023-02-18T11:55:57;10.50;;;3.83;;
11064;SDS011;5585;52.530;7.320;2023-02-18T11:58:24;12.63;;;6.13;;
11064;SDS011;5585;52.530;7.320;2023-02-18T12:00:53;19.03;;;8.83;;
11064;SDS011;5585;52.530;7.320;2023-02-18T12:03:24;8.30;;;4.17;;
11064;SDS011;5585;52.530;7.320;2023-02-18T12:05:55;9.43;;;3.63;;
11064;SDS011;5585;52.530;7.320;2023-02-18T12:08:23;10.73;;;3.00;;
11064;SDS011;5585;52.530;7.320;2023-02-18T12:10:51;10.27;;;3.30;;
11064;SDS011;5585;52.530;7.320;2023-02-18T12:13:22;8.40;;;2.53;;
11064;SDS011;5585;52.530;7.320;2023-02-18T12:15:52;8.60;;;2.93;;
11064;SDS011;5585;52.530;7.320;2023-02-18T12:18:32;7.17;;;2.83;;
11064;SDS011;5585;52.530;7.320;2023-02-18T12:21:13;13.97;;;8.33;;
11064;SDS011;5585;52.530;7.320;2023-02-18T12:23:47;22.23;;;12.90;;
11064;SDS011;5585;52.530;7.320;2023-02-18T12:26:18;20.93;;;12.13;;
11064;SDS011;5585;52.530;7.320;2023-02-18T12:28:51;72.20;;;48.57;;
11064;SDS011;5585;52.530;7.320;2023-02-18T12:31:23;49.13;;;32.27;;
11064;SDS011;5585;52.530;7.320;2023-02-18T12:34:00;33.57;;;19.90;;
11064;SDS011;5585;52.530;7.320;2023-02-18T12:36:32;15.47;;;9.57;;
11064;SDS011;5585;52.530;7.320;2023-02-18T12:39:10;15.17;;;8.40;;
11064;SDS011;5585;52.530;7.320;2023-02-18T12:41:40;15.47;;;7.60;;
11064;SDS011;5585;52.530;7.320;2023-02-18T12:44:13;21.30;;;13.03;;
11064;SDS011;5585;52.530;7.320;2023-02-18T12:46:57;17.87;;;9.80;;
11064;SDS011;5585;52.530;7.320;2023-02-18T12:52:20;19.60;;;10.03;;
11064;SDS011;5585;52.530;7.320;2023-02-18T12:54:55;14.50;;;8.37;;
11064;SDS011;5585;52.530;7.320;2023-02-18T12:57:33;17.63;;;8.13;;
11064;SDS011;5585;52.530;7.320;2023-02-18T13:00:07;12.67;;;5.63;;
11064;SDS011;5585;52.530;7.320;2023-02-18T13:02:45;16.37;;;10.17;;
11064;SDS011;5585;52.530;7.320;2023-02-18T13:05:18;15.00;;;9.37;;
11064;SDS011;5585;52.530;7.320;2023-02-18T13:07:57;8.83;;;3.60;;
11064;SDS011;5585;52.530;7.320;2023-02-18T13:13:16;13.13;;;8.73;;
11064;SDS011;5585;52.530;7.320;2023-02-18T13:15:44;11.47;;;3.30;;
11064;SDS011;5585;52.530;7.320;2023-02-18T13:18:14;14.33;;;5.50;;
11064;SDS011;5585;52.530;7.320;2023-02-18T13:20:42;23.40;;;13.83;;
11064;SDS011;5585;52.530;7.320;2023-02-18T13:23:15;22.30;;;14.80;;
11064;SDS011;5585;52.530;7.320;2023-02-18T13:25:42;13.23;;;7.40;;
11064;SDS011;5585;52.530;7.320;2023-02-18T13:28:12;10.70;;;4.40;;
11064;SDS011;5585;52.530;7.320;2023-02-18T13:30:41;14.00;;;7.70;;
11064;SDS011;5585;52.530;7.320;2023-02-18T13:33:10;11.63;;;4.57;;
11064;SDS011;5585;52.530;7.320;2023-02-18T13:35:41;11.37;;;4.30;;
11064;SDS011;5585;52.530;7.320;2023-02-18T13:38:14;12.77;;;4.80;;
11064;SDS011;5585;52.530;7.320;2023-02-18T13:40:46;7.60;;;2.77;;
11064;SDS011;5585;52.530;7.320;2023-02-18T13:43:17;7.13;;;2.53;;
11064;SDS011;5585;52.530;7.320;2023-02-18T13:45:55;10.93;;;5.87;;
11064;SDS011;5585;52.530;7.320;2023-02-18T13:48:27;24.80;;;16.53;;
11064;SDS011;5585;52.530;7.320;2023-02-18T13:50:55;16.07;;;11.73;;
11064;SDS011;5585;52.530;7.320;2023-02-18T13:53:28;14.83;;;9.57;;
11064;SDS011;5585;52.530;7.320;2023-02-18T13:56:01;7.97;;;4.43;;
11064;SDS011;5585;52.530;7.320;2023-02-18T13:58:30;8.40;;;3.03;;
11064;SDS011;5585;52.530;7.320;2023-02-18T14:01:00;7.93;;;2.80;;
11064;SDS011;5585;52.530;7.320;2023-02-18T14:03:32;8.03;;;2.60;;
11064;SDS011;5585;52.530;7.320;2023-02-18T14:06:00;8.23;;;2.13;;
11064;SDS011;5585;52.530;7.320;2023-02-18T14:08:30;7.23;;;2.23;;
11064;SDS011;5585;52.530;7.320;2023-02-18T14:13:45;7.97;;;2.40;;
11064;SDS011;5585;52.530;7.320;2023-02-18T14:16:12;7.93;;;2.50;;
11064;SDS011;5585;52.530;7.320;2023-02-18T14:18:58;6.40;;;2.13;;
11064;SDS011;5585;52.530;7.320;2023-02-18T14:21:38;3.67;;;1.57;;
11064;SDS011;5585;52.530;7.320;2023-02-18T14:24:06;9.90;;;2.67;;
11064;SDS011;5585;52.530;7.320;2023-02-18T14:26:34;5.33;;;2.17;;
11064;SDS011;5585;52.530;7.320;2023-02-18T14:29:07;6.97;;;2.20;;
11064;SDS011;5585;52.530;7.320;2023-02-18T14:31:40;5.23;;;2.50;;
11064;SDS011;5585;52.530;7.320;2023-02-18T14:34:19;5.87;;;2.20;;
11064;SDS011;5585;52.530;7.320;2023-02-18T14:36:52;5.33;;;1.97;;
11064;SDS011;5585;52.530;7.320;2023-02-18T14:39:25;9.43;;;2.63;;
11064;SDS011;5585;52.530;7.320;2023-02-18T14:41:56;5.27;;;2.13;;
11064;SDS011;5585;52.530;7.320;2023-02-18T14:44:30;6.13;;;2.00;;
11064;SDS011;5585;52.530;7.320;2023-02-18T14:47:03;7.03;;;1.90;;
11064;SDS011;5585;52.530;7.320;2023-02-18T14:49:35;5.73;;;2.20;;
11064;SDS011;5585;52.530;7.320;2023-02-18T14:52:02;6.27;;;2.00;;
11064;SDS011;5585;52.530;7.320;2023-02-18T14:54:29;7.03;;;2.13;;
11064;SDS011;5585;52.530;7.320;2023-02-18T14:56:56;7.07;;;1.60;;
11064;SDS011;5585;52.530;7.320;2023-02-18T14:59:24;5.83;;;2.20;;
11064;SDS011;5585;52.530;7.320;2023-02-18T15:01:54;9.07;;;2.13;;
11064;SDS011;5585;52.530;7.320;2023-02-18T15:04:21;7.90;;;2.70;;
11064;SDS011;5585;52.530;7.320;2023-02-18T15:06:56;5.50;;;2.13;;
11064;SDS011;5585;52.530;7.320;2023-02-18T15:09:23;6.07;;;2.07;;
11064;SDS011;5585;52.530;7.320;2023-02-18T15:11:50;7.80;;;2.57;;
11064;SDS011;5585;52.530;7.320;2023-02-18T15:14:18;8.40;;;2.40;;